Critz, VA

12:34 PM EST on January 28, 2015 (GMT -0500)
Stanburn Winery - Stuart, VA | Change Station
CLOSE
Current Station
Personal Weather Station
Location: Stuart, VA
Elevation: 1158 ft
Nearby Weather Stations

Elev 1158 ft 36.59 °N, 80.20 °W | Updated 10 minutes ago

Clear
Clear
41.0 °F
Feels Like 41 °F
N
3.0
Wind Variable Wind from West
Gusts 5.0 mph

Today
High -- | Low -- °F
--% Chance of Precip.
Yesterday
High -- | Low -- °F
Precip. -- in
7:25 AM 5:41 PM
Waxing Gibbous, 66% visible
Pressure 30.26 in
Visibility 10.0 miles
Clouds Clear
Windchill 41 °F
Dew Point 20 °F
Humidity 43%
Rainfall 0.00 in
Snow Depth Not available.
UV 4 out of 12
Pollen 1.00 out of 12
Air Quality Not available.
Flu Activity Not available.
METAR KMTV 281715Z AUTO 04007G14KT 010V070 10SM CLR 05/M10 A3026 RMK AO2 T00501096

More Conditions Fewer Conditions

Pressure 30.26 in
Visibility 10.0 miles
Clouds Clear
Windchill 41 °F
Dew Point 20 °F
Humidity 43%
Rainfall 0.00 in
Snow Depth Not available.
UV 4 out of 12
Pollen 1.00 out of 12
Air Quality Not available.
Flu Activity Not available.
METAR KMTV 281715Z AUTO 04007G14KT 010V070 10SM CLR 05/M10 A3026 RMK AO2 T00501096

More Conditions Fewer Conditions

10-Day Weather Forecast

Almanac

Astronomy

Jan. 28, 2015 Rise Set
Actual Time
Civil Twilight
Nautical Twilight
Astronomical Twilight
Moon
Length of Visible Light
Length of Day
Tomorrow will be .
, % of the Moon is Illuminated

Today's Extremes

State Highs State Lows

Community

WunderPhotos

Upload Photos

1,791,214 photos uploaded!

WunderBlogs® & News

Nearby

Air Quality

  Air Quality AQ Index Pollutant
Not available.

Snow Depth

Station Depth Elevation

Earthquake Activity

City Distance Mag. Time & Date
Minimum magnitude displayed is 2.5.

Coastal Water Temperatures

Place Temperature

Nearby Weather Stations